Time;durP1;ratioP1;P1;durP2;ratioP2;P2;SDS_P1;SDS_P2;PMS_P1;PMS_P2;Temp;Humidity;BMP_temperature;BMP_pressure;BME280_temperature;BME280_humidity;BME280_pressure;Samples;Min_cycle;Max_cycle;Signal;HPM_P1;HPM_P2
2022/07/25 00:01:26;;;;;;;13.20;11.93;;;25.00;99.90;;;;;;5119702;28;20492;-73
2022/07/25 00:03:54;;;;;;;10.33;9.33;;;25.00;99.90;;;;;;5119523;28;20445;-73
2022/07/25 00:06:21;;;;;;;7.70;6.83;;;25.00;99.90;;;;;;5120542;28;20461;-73
2022/07/25 00:08:48;;;;;;;5.23;4.73;;;24.80;99.90;;;;;;5120567;28;20440;-73
2022/07/25 00:11:15;;;;;;;3.50;3.20;;;24.70;99.90;;;;;;5120240;28;20951;-73
2022/07/25 00:13:42;;;;;;;5.60;3.63;;;24.60;99.90;;;;;;5120225;28;20483;-73
2022/07/25 00:16:09;;;;;;;5.63;3.70;;;24.60;99.90;;;;;;5120397;28;20922;-73
2022/07/25 00:18:36;;;;;;;4.93;3.27;;;24.60;99.90;;;;;;5120219;28;20441;-73
2022/07/25 00:21:05;;;;;;;3.67;3.37;;;24.60;99.90;;;;;;5120488;28;20453;-73
2022/07/25 00:23:32;;;;;;;3.73;3.43;;;24.60;1.00;;;;;;5119989;28;20576;-73
2022/07/25 00:25:59;;;;;;;4.90;3.00;;;24.60;1.00;;;;;;5120360;28;20541;-73
2022/07/25 00:28:26;;;;;;;2.90;2.70;;;24.60;1.00;;;;;;5120119;28;20448;-74
2022/07/25 00:30:53;;;;;;;3.37;3.07;;;24.60;1.00;;;;;;5119749;28;20862;-74
2022/07/25 00:33:20;;;;;;;3.93;3.43;;;24.60;1.00;;;;;;5120185;28;20445;-73
2022/07/25 00:35:46;;;;;;;4.13;3.73;;;24.60;99.90;;;;;;5120032;28;20480;-73
2022/07/25 00:38:15;;;;;;;3.00;2.70;;;24.60;99.90;;;;;;5119700;28;20475;-73
2022/07/25 00:40:42;;;;;;;3.80;3.50;;;24.50;1.00;;;;;;5119518;28;20953;-73
2022/07/25 00:43:09;;;;;;;4.87;3.40;;;24.50;1.00;;;;;;5119443;28;20512;-74
2022/07/25 00:45:36;;;;;;;3.77;3.33;;;24.50;1.00;;;;;;5119359;28;20884;-74
2022/07/25 00:48:03;;;;;;;3.67;3.37;;;24.50;1.00;;;;;;5119915;28;20484;-73
2022/07/25 00:50:30;;;;;;;3.50;3.20;;;24.30;1.00;;;;;;5119389;28;20520;-74
2022/07/25 00:52:57;;;;;;;4.23;3.83;;;24.30;1.00;;;;;;5119725;28;20541;-73
2022/07/25 00:55:26;;;;;;;4.70;4.30;;;24.30;1.00;;;;;;5119575;28;20820;-73
2022/07/25 00:57:53;;;;;;;4.47;3.93;;;24.30;1.00;;;;;;5119924;28;20525;-73
2022/07/25 01:00:20;;;;;;;3.30;3.00;;;24.30;1.00;;;;;;5118973;28;20480;-74
2022/07/25 01:02:47;;;;;;;2.57;2.37;;;24.30;1.00;;;;;;5118944;28;20520;-74
2022/07/25 01:05:14;;;;;;;3.27;2.60;;;24.30;1.00;;;;;;5119121;28;20517;-74
2022/07/25 01:07:41;;;;;;;4.23;3.93;;;24.30;1.00;;;;;;5118911;28;20449;-73
2022/07/25 01:10:09;;;;;;;3.67;3.37;;;24.30;1.00;;;;;;5118787;28;20496;-73
2022/07/25 01:12:51;;;;;;;3.93;3.47;;;24.20;1.00;;;;;;5119218;28;20448;-73
2022/07/25 01:15:18;;;;;;;3.57;3.27;;;24.20;99.90;;;;;;5119267;28;20452;-74
2022/07/25 01:17:45;;;;;;;4.77;4.10;;;24.20;99.90;;;;;;5119079;28;20476;-73
2022/07/25 01:20:15;;;;;;;3.47;2.50;;;24.20;99.90;;;;;;5119220;28;21021;-73
2022/07/25 01:22:42;;;;;;;4.23;3.00;;;24.20;99.90;;;;;;5118976;28;20492;-73
2022/07/25 01:25:10;;;;;;;3.70;2.97;;;24.20;99.90;;;;;;5118825;28;20761;-73
2022/07/25 01:27:37;;;;;;;3.37;2.50;;;24.20;99.90;;;;;;5119309;28;20524;-73
2022/07/25 01:30:06;;;;;;;4.03;3.50;;;24.20;99.90;;;;;;5118747;28;20514;-73
2022/07/25 01:32:33;;;;;;;3.40;3.00;;;24.20;99.90;;;;;;5118887;28;20876;-73
2022/07/25 01:35:00;;;;;;;4.23;3.70;;;24.20;99.90;;;;;;5118611;28;20456;-73
2022/07/25 01:37:28;;;;;;;4.03;3.63;;;24.20;99.90;;;;;;5118510;28;20483;-74
2022/07/25 01:39:55;;;;;;;5.20;4.63;;;24.20;99.90;;;;;;5118421;28;20488;-73
2022/07/25 01:42:22;;;;;;;3.40;3.10;;;24.10;99.90;;;;;;5118644;28;20895;-73
2022/07/25 01:44:49;;;;;;;3.40;3.07;;;24.00;99.90;;;;;;5118490;28;20488;-73
2022/07/25 01:47:17;;;;;;;3.33;3.03;;;24.00;99.90;;;;;;5118817;28;20445;-73
2022/07/25 01:49:44;;;;;;;3.83;3.53;;;24.00;99.90;;;;;;5117856;28;20480;-74
2022/07/25 01:52:11;;;;;;;3.47;3.17;;;24.00;99.90;;;;;;5118348;28;20813;-73
2022/07/25 01:54:40;;;;;;;4.27;3.90;;;24.00;1.00;;;;;;5118619;28;20544;-73
2022/07/25 01:57:08;;;;;;;4.40;3.20;;;23.90;1.00;;;;;;5118398;28;20449;-74
2022/07/25 01:59:38;;;;;;;5.10;3.70;;;23.90;1.00;;;;;;5118257;28;20804;-74
2022/07/25 02:02:05;;;;;;;3.20;2.97;;;23.90;99.90;;;;;;5118480;28;20531;-73
2022/07/25 02:04:32;;;;;;;3.57;3.27;;;23.90;99.90;;;;;;5118285;28;20441;-73
2022/07/25 02:06:59;;;;;;;3.67;3.30;;;23.90;99.90;;;;;;5118481;28;20512;-73
2022/07/25 02:09:26;;;;;;;3.60;3.30;;;23.90;99.90;;;;;;5117959;28;20445;-74
2022/07/25 02:11:54;;;;;;;3.83;3.50;;;23.90;99.90;;;;;;5117710;28;20527;-73
2022/07/25 02:14:21;;;;;;;5.20;4.10;;;23.90;1.00;;;;;;5117517;28;20480;-74
2022/07/25 02:16:48;;;;;;;3.90;3.50;;;23.90;99.90;;;;;;5117931;28;20738;-73
2022/07/25 02:19:15;;;;;;;3.30;2.73;;;24.00;1.00;;;;;;5117409;28;20440;-74
2022/07/25 02:21:43;;;;;;;2.80;2.60;;;24.00;99.90;;;;;;5117981;28;20452;-74
2022/07/25 02:24:10;;;;;;;3.10;2.83;;;24.00;99.90;;;;;;5117879;28;20449;-73
2022/07/25 02:26:37;;;;;;;19.17;3.03;;;23.90;99.90;;;;;;5118019;28;20513;-73
2022/07/25 02:29:05;;;;;;;2.43;2.23;;;24.00;99.90;;;;;;5116525;28;20856;-74
2022/07/25 02:31:32;;;;;;;2.87;2.63;;;24.00;99.90;;;;;;5117589;28;20939;-72
2022/07/25 02:33:59;;;;;;;2.37;2.17;;;23.90;99.90;;;;;;5117585;28;20441;-72
2022/07/25 02:36:26;;;;;;;2.37;2.17;;;24.00;77.10;;;;;;5117800;28;20906;-72
2022/07/25 02:38:53;;;;;;;2.40;1.70;;;23.90;50.40;;;;;;5113296;28;21130;-72
2022/07/25 02:41:20;;;;;;;2.20;1.73;;;23.90;72.10;;;;;;5097175;28;20877;-72
2022/07/25 02:43:47;;;;;;;2.73;2.40;;;23.90;86.60;;;;;;5097033;28;20731;-72
2022/07/25 02:46:15;;;;;;;2.83;2.30;;;23.90;95.60;;;;;;5096449;28;20916;-73
2022/07/25 02:48:42;;;;;;;2.73;2.00;;;23.90;96.50;;;;;;5103522;28;20488;-72
2022/07/25 02:51:09;;;;;;;3.07;2.40;;;23.90;96.60;;;;;;5117346;28;20842;-73
2022/07/25 02:53:36;;;;;;;3.27;2.40;;;24.00;99.60;;;;;;5117115;28;20484;-73
2022/07/25 02:56:03;;;;;;;2.67;2.47;;;23.90;99.90;;;;;;5117057;28;20543;-73
2022/07/25 02:58:29;;;;;;;2.83;2.63;;;23.90;99.90;;;;;;5116506;28;20460;-73
2022/07/25 03:00:56;;;;;;;3.70;2.17;;;23.90;99.90;;;;;;5117202;28;20452;-73
2022/07/25 03:03:25;;;;;;;2.47;1.77;;;23.80;99.90;;;;;;5117134;28;20485;-73
2022/07/25 03:05:52;;;;;;;2.20;1.80;;;23.80;99.90;;;;;;5116936;28;20498;-73
2022/07/25 03:08:18;;;;;;;2.50;2.03;;;23.80;99.90;;;;;;5116848;28;20943;-73
2022/07/25 03:10:46;;;;;;;3.00;2.70;;;23.80;99.90;;;;;;5117255;28;20480;-72
2022/07/25 03:13:13;;;;;;;2.93;2.70;;;23.70;98.00;;;;;;5117155;28;20832;-74
2022/07/25 03:15:40;;;;;;;3.73;2.67;;;23.60;82.60;;;;;;5116245;28;20492;-74
2022/07/25 03:18:06;;;;;;;2.80;2.60;;;23.60;35.90;;;;;;5115976;28;20892;-73
2022/07/25 03:20:35;;;;;;;2.83;2.33;;;23.60;61.80;;;;;;5115751;28;20769;-73
2022/07/25 03:23:02;;;;;;;2.67;2.40;;;23.60;48.20;;;;;;5116134;28;20922;-73
2022/07/25 03:25:29;;;;;;;3.07;2.37;;;23.60;52.20;;;;;;5116194;28;20480;-73
2022/07/25 03:27:56;;;;;;;4.10;2.33;;;23.60;42.20;;;;;;5116078;28;20480;-73
2022/07/25 03:30:23;;;;;;;2.90;2.70;;;23.60;36.70;;;;;;5116619;28;20773;-73
2022/07/25 03:32:50;;;;;;;2.40;1.60;;;23.50;28.00;;;;;;5117363;28;20480;-73
2022/07/25 03:35:17;;;;;;;3.50;2.23;;;23.50;52.40;;;;;;5116664;28;20807;-73
2022/07/25 03:37:45;;;;;;;2.80;2.10;;;23.50;55.60;;;;;;5117031;28;20726;-74
2022/07/25 03:40:14;;;;;;;2.50;2.30;;;23.50;63.80;;;;;;5116683;28;20943;-74
2022/07/25 03:42:41;;;;;;;2.80;2.30;;;23.50;92.80;;;;;;5116646;28;20452;-73
2022/07/25 03:45:09;;;;;;;3.50;3.03;;;23.40;78.50;;;;;;5116765;28;20521;-73
2022/07/25 03:47:36;;;;;;;3.20;2.60;;;23.40;83.30;;;;;;5116910;28;20484;-72
2022/07/25 03:50:04;;;;;;;3.07;2.87;;;23.40;99.90;;;;;;5116705;28;20459;-73
2022/07/25 03:52:31;;;;;;;2.70;2.03;;;23.30;99.90;;;;;;5116926;28;20480;-72
2022/07/25 03:54:59;;;;;;;3.93;2.80;;;23.30;99.90;;;;;;5116227;28;20495;-74
2022/07/25 03:57:26;;;;;;;3.10;2.90;;;23.40;99.90;;;;;;5116508;28;20833;-72
2022/07/25 03:59:53;;;;;;;2.00;1.80;;;23.50;99.90;;;;;;5115907;28;20505;-72
2022/07/25 04:02:20;;;;;;;2.57;2.00;;;23.50;99.90;;;;;;5116638;28;20445;-73
2022/07/25 04:04:47;;;;;;;2.73;2.53;;;23.60;94.30;;;;;;5116914;28;20476;-73
2022/07/25 04:07:16;;;;;;;3.43;2.63;;;23.70;87.90;;;;;;5114653;28;20908;-74
2022/07/25 04:09:43;;;;;;;3.23;2.47;;;23.70;85.70;;;;;;5109271;28;20919;-74
2022/07/25 04:12:11;;;;;;;2.80;2.60;;;23.70;92.80;;;;;;5096096;28;20517;-74
2022/07/25 04:14:38;;;;;;;4.47;2.53;;;23.60;97.10;;;;;;5095429;28;20479;-74
2022/07/25 04:17:05;;;;;;;3.20;2.27;;;23.50;99.90;;;;;;5095934;28;20553;-74
2022/07/25 04:19:32;;;;;;;3.27;2.97;;;23.50;99.90;;;;;;5095551;28;20524;-73
2022/07/25 04:21:59;;;;;;;3.63;2.33;;;23.50;99.90;;;;;;5095080;28;20495;-74
2022/07/25 04:24:26;;;;;;;3.73;3.27;;;23.60;99.90;;;;;;5095636;28;20445;-74
2022/07/25 04:26:53;;;;;;;4.27;2.97;;;23.60;99.90;;;;;;5096057;28;20514;-74
2022/07/25 04:29:22;;;;;;;3.40;2.77;;;23.60;99.90;;;;;;5095895;28;20473;-74
2022/07/25 04:31:49;;;;;;;4.03;3.43;;;23.60;99.90;;;;;;5095533;28;20579;-74
2022/07/25 04:34:16;;;;;;;2.80;2.50;;;23.50;99.90;;;;;;5095245;28;20865;-73
2022/07/25 04:36:43;;;;;;;3.10;2.60;;;23.40;99.90;;;;;;5093972;28;20489;-73
2022/07/25 04:39:10;;;;;;;3.10;2.90;;;23.40;99.90;;;;;;5094807;28;20474;-73
2022/07/25 04:41:37;;;;;;;3.27;3.03;;;23.30;99.90;;;;;;5096081;28;20572;-73
2022/07/25 04:44:06;;;;;;;4.70;2.37;;;23.30;99.90;;;;;;5119040;28;20479;-74
2022/07/25 04:46:34;;;;;;;2.90;2.70;;;23.20;99.90;;;;;;5119504;28;20463;-74
2022/07/25 04:49:01;;;;;;;4.40;3.70;;;23.20;1.00;;;;;;5118394;28;20509;-74
2022/07/25 04:51:28;;;;;;;4.30;3.40;;;23.20;1.00;;;;;;5119074;28;20541;-74
2022/07/25 04:53:55;;;;;;;4.63;4.30;;;23.10;1.00;;;;;;5119167;28;20449;-74
2022/07/25 04:56:22;;;;;;;4.60;3.00;;;23.10;1.00;;;;;;5118321;28;20463;-75
2022/07/25 04:58:49;;;;;;;4.23;3.20;;;23.10;1.00;;;;;;5117872;28;20453;-74
2022/07/25 05:01:16;;;;;;;2.93;2.60;;;23.10;1.00;;;;;;5118525;28;20553;-74
2022/07/25 05:03:44;;;;;;;3.27;2.97;;;23.10;1.00;;;;;;5118692;28;20472;-74
2022/07/25 05:06:11;;;;;;;2.87;2.67;;;23.00;1.00;;;;;;5118033;28;20469;-74
2022/07/25 05:08:38;;;;;;;3.20;2.60;;;23.00;1.00;;;;;;5116355;28;20472;-74
2022/07/25 05:11:05;;;;;;;2.83;2.53;;;23.00;1.00;;;;;;5118029;28;20516;-74
2022/07/25 05:13:32;;;;;;;4.47;3.27;;;23.00;1.00;;;;;;5118106;28;20448;-73
2022/07/25 05:15:59;;;;;;;3.83;2.83;;;23.10;1.00;;;;;;5118228;28;20480;-74
2022/07/25 05:18:26;;;;;;;3.40;1.80;;;23.10;1.00;;;;;;5117850;28;20491;-74
2022/07/25 05:20:54;;;;;;;3.83;1.90;;;23.20;1.00;;;;;;5117668;28;20937;-74
2022/07/25 05:23:22;;;;;;;3.47;2.50;;;23.30;1.00;;;;;;5118511;28;20514;-75
2022/07/25 05:25:49;;;;;;;2.77;2.57;;;23.40;1.00;;;;;;5100265;28;20465;-74
2022/07/25 05:28:16;;;;;;;2.80;2.60;;;23.50;1.00;;;;;;5098198;28;20507;-74
2022/07/25 05:30:43;;;;;;;5.83;2.83;;;23.60;99.90;;;;;;5096399;28;20450;-74
2022/07/25 05:33:10;;;;;;;2.90;2.63;;;23.70;99.90;;;;;;5097319;28;20468;-74
2022/07/25 05:35:37;;;;;;;3.07;2.63;;;23.80;99.90;;;;;;5096128;28;20514;-74
2022/07/25 05:38:05;;;;;;;3.53;2.80;;;23.90;99.90;;;;;;5096615;28;20465;-75
2022/07/25 05:40:32;;;;;;;2.93;2.73;;;23.90;99.90;;;;;;5089805;28;20482;-75
2022/07/25 05:42:59;;;;;;;2.93;2.50;;;23.90;99.90;;;;;;5057742;28;20445;-75
2022/07/25 05:45:27;;;;;;;3.50;3.20;;;23.90;99.90;;;;;;5076323;28;20458;-76
2022/07/25 05:47:54;;;;;;;4.17;3.23;;;24.00;99.90;;;;;;5074766;28;20850;-76
2022/07/25 05:50:21;;;;;;;5.03;3.67;;;24.10;99.90;;;;;;5073762;28;20450;-75
2022/07/25 05:52:48;;;;;;;3.60;3.13;;;24.10;99.90;;;;;;5072579;28;20486;-75
2022/07/25 05:55:17;;;;;;;4.00;2.80;;;24.10;99.90;;;;;;5073195;28;20818;-75
2022/07/25 05:57:44;;;;;;;3.43;3.13;;;24.10;99.90;;;;;;5072037;28;20447;-75
2022/07/25 06:00:12;;;;;;;3.57;3.27;;;24.20;99.90;;;;;;5073988;28;20466;-75
2022/07/25 06:02:39;;;;;;;3.27;2.97;;;24.20;99.90;;;;;;5073607;28;20447;-75
2022/07/25 06:05:06;;;;;;;3.37;3.07;;;24.20;99.90;;;;;;5075139;28;20447;-76
2022/07/25 06:07:33;;;;;;;2.80;2.50;;;24.20;99.90;;;;;;5075912;28;20508;-85
2022/07/25 06:10:00;;;;;;;3.80;3.50;;;24.30;99.90;;;;;;5089753;28;20461;-83
2022/07/25 06:12:28;;;;;;;2.67;2.47;;;24.40;99.90;;;;;;5101717;28;20486;-81
2022/07/25 06:14:55;;;;;;;3.93;3.57;;;24.50;99.90;;;;;;5094147;28;20504;-76
2022/07/25 06:17:24;;;;;;;4.03;2.73;;;24.50;99.90;;;;;;5095674;28;20988;-75
2022/07/25 06:19:52;;;;;;;2.87;2.37;;;24.60;99.90;;;;;;5095579;28;20462;-76
2022/07/25 06:22:19;;;;;;;2.60;2.33;;;24.80;89.00;;;;;;5096733;28;20549;-82
2022/07/25 06:24:48;;;;;;;3.40;3.00;;;24.80;52.50;;;;;;5096852;28;20441;-84
2022/07/25 06:27:15;;;;;;;3.03;2.83;;;25.00;2.30;;;;;;5093491;28;20487;-84
2022/07/25 06:29:44;;;;;;;2.87;2.67;;;25.00;1.00;;;;;;5097767;28;20467;-87
2022/07/25 06:32:11;;;;;;;3.60;2.73;;;25.10;1.00;;;;;;5088320;28;20521;-83
2022/07/25 06:34:39;;;;;;;3.87;2.57;;;25.20;1.00;;;;;;5078583;28;20455;-86
2022/07/25 06:37:07;;;;;;;2.87;2.67;;;25.30;1.00;;;;;;5089753;28;20458;-85
2022/07/25 06:39:34;;;;;;;5.33;2.97;;;25.40;1.00;;;;;;5100637;28;20449;-85
2022/07/25 06:42:03;;;;;;;2.47;2.27;;;25.40;1.00;;;;;;5113976;28;20480;-83
2022/07/25 06:44:32;;;;;;;2.80;2.37;;;25.60;1.00;;;;;;5116003;28;20825;-87
2022/07/25 06:47:01;;;;;;;2.93;2.73;;;25.70;1.00;;;;;;5118209;28;20441;-84
2022/07/25 06:49:28;;;;;;;3.50;2.80;;;25.80;1.00;;;;;;5118904;28;20861;-84
2022/07/25 06:51:55;;;;;;;3.33;3.03;;;25.90;1.00;;;;;;5112279;28;20488;-85
2022/07/25 06:54:22;;;;;;;2.47;2.27;;;26.00;1.00;;;;;;5119941;28;20452;-85
2022/07/25 06:56:51;;;;;;;2.80;2.50;;;26.10;1.00;;;;;;5121864;28;20506;-85
2022/07/25 06:59:19;;;;;;;5.43;2.43;;;26.10;1.00;;;;;;5116649;28;20488;-85
2022/07/25 07:01:46;;;;;;;6.03;2.20;;;26.20;1.00;;;;;;5119020;28;20452;-81
2022/07/25 07:04:14;;;;;;;3.03;2.80;;;26.30;1.00;;;;;;5117424;28;20463;-79
2022/07/25 07:06:42;;;;;;;2.60;2.37;;;26.40;1.00;;;;;;5109735;28;22256;-80
2022/07/25 07:09:10;;;;;;;2.13;1.93;;;26.50;1.00;;;;;;5104446;28;20452;-80
2022/07/25 07:11:37;;;;;;;4.30;2.67;;;26.60;1.00;;;;;;5113567;28;20546;-79
2022/07/25 07:14:04;;;;;;;3.23;2.93;;;26.70;1.00;;;;;;5109696;28;20458;-80
2022/07/25 07:16:31;;;;;;;4.27;3.90;;;26.80;1.00;;;;;;5096373;28;20453;-79
2022/07/25 07:18:58;;;;;;;3.93;3.20;;;26.90;1.00;;;;;;5105986;28;20468;-79
2022/07/25 07:21:27;;;;;;;4.90;3.43;;;27.00;1.00;;;;;;5113747;28;20514;-80
2022/07/25 07:23:54;;;;;;;3.30;2.93;;;27.10;1.00;;;;;;5115924;28;20518;-90
2022/07/25 07:26:21;;;;;;;3.20;2.60;;;27.20;1.00;;;;;;5120318;28;20457;-82
2022/07/25 07:28:48;;;;;;;2.73;2.43;;;27.20;1.00;;;;;;5113186;28;20916;-73
2022/07/25 07:31:16;;;;;;;3.07;2.60;;;27.30;1.00;;;;;;5113464;28;20465;-78
2022/07/25 07:33:43;;;;;;;2.60;2.30;;;27.40;1.00;;;;;;5110797;28;20543;-78
2022/07/25 07:36:10;;;;;;;3.90;3.47;;;27.50;1.00;;;;;;5112121;28;20548;-75
2022/07/25 07:38:38;;;;;;;3.00;2.70;;;27.60;1.00;;;;;;5111172;28;20837;-73
2022/07/25 07:41:07;;;;;;;3.20;3.00;;;27.70;1.00;;;;;;5111188;28;20842;-74
2022/07/25 07:43:34;;;;;;;3.50;2.80;;;27.80;1.00;;;;;;5110364;28;21076;-75
2022/07/25 07:46:01;;;;;;;2.70;2.50;;;27.90;1.00;;;;;;5113405;28;20798;-74
2022/07/25 07:48:29;;;;;;;3.47;3.17;;;27.90;1.00;;;;;;5108025;28;20465;-75
2022/07/25 07:50:56;;;;;;;4.33;4.00;;;28.00;1.00;;;;;;5105522;28;20522;-75
2022/07/25 07:55:42;;;;;;;3.40;2.90;;;28.10;1.00;;;;;;5110407;28;20565;-75
2022/07/25 07:56:11;;;;;;;3.97;3.40;;;28.20;1.00;;;;;;5111737;28;20760;-76
2022/07/25 07:58:41;;;;;;;4.40;2.90;;;28.30;1.00;;;;;;5114904;28;20472;-74
2022/07/25 08:01:23;;;;;;;3.50;3.20;;;28.40;1.00;;;;;;5114647;28;20518;-76
2022/07/25 08:03:51;;;;;;;3.87;3.47;;;28.50;1.00;;;;;;5106320;28;20465;-74
2022/07/25 08:06:18;;;;;;;3.63;3.33;;;28.60;1.00;;;;;;5113294;28;20488;-73
2022/07/25 08:08:45;;;;;;;3.60;3.23;;;28.70;1.00;;;;;;5114061;28;20452;-74
2022/07/25 08:11:14;;;;;;;3.10;2.27;;;28.80;1.00;;;;;;5111364;28;20472;-75
2022/07/25 08:13:41;;;;;;;3.80;2.77;;;28.90;1.00;;;;;;5112509;28;20567;-75
2022/07/25 08:16:10;;;;;;;3.53;3.23;;;29.00;1.00;;;;;;5112932;28;20543;-75
2022/07/25 08:18:37;;;;;;;3.57;2.70;;;29.00;1.00;;;;;;5115657;28;20467;-77
2022/07/25 08:21:05;;;;;;;4.03;3.67;;;29.20;1.00;;;;;;5116172;28;20766;-72
2022/07/25 08:23:34;;;;;;;3.00;2.70;;;29.30;1.00;;;;;;5116256;28;20436;-75
2022/07/25 08:26:02;;;;;;;3.70;3.50;;;29.30;1.00;;;;;;5116788;28;20457;-74
2022/07/25 08:28:31;;;;;;;6.30;5.80;;;29.40;1.00;;;;;;5117958;28;20441;-74
2022/07/25 08:30:59;;;;;;;5.30;3.47;;;29.50;1.00;;;;;;5118757;28;20572;-76
2022/07/25 08:33:27;;;;;;;4.37;4.00;;;29.60;1.00;;;;;;5118798;28;20479;-75
2022/07/25 08:35:57;;;;;;;3.20;2.93;;;29.70;1.00;;;;;;5118259;28;20452;-75
2022/07/25 08:38:25;;;;;;;2.63;2.13;;;29.80;1.00;;;;;;5111373;28;20461;-75
2022/07/25 08:40:53;;;;;;;2.90;2.47;;;29.90;1.00;;;;;;5112837;28;20492;-75
2022/07/25 08:43:21;;;;;;;5.40;4.83;;;30.10;1.00;;;;;;5113958;28;20453;-75
2022/07/25 08:45:51;;;;;;;2.20;1.73;;;30.20;1.00;;;;;;5114207;28;20452;-75
2022/07/25 08:48:19;;;;;;;2.67;2.40;;;30.20;1.00;;;;;;5105464;28;20904;-74
2022/07/25 08:50:49;;;;;;;2.40;2.20;;;30.30;1.00;;;;;;5104258;28;20457;-76
2022/07/25 08:53:18;;;;;;;2.90;2.70;;;30.30;1.00;;;;;;5106749;28;20488;-75
2022/07/25 08:55:45;;;;;;;2.50;2.30;;;30.50;1.00;;;;;;5118366;28;20452;-75
2022/07/25 08:58:14;;;;;;;2.20;2.00;;;30.50;1.00;;;;;;5118688;28;20445;-75
2022/07/25 09:00:43;;;;;;;3.30;2.27;;;30.70;1.00;;;;;;5117572;28;20969;-74
2022/07/25 09:03:12;;;;;;;3.33;2.70;;;30.80;1.00;;;;;;5117484;28;20887;-75
2022/07/25 09:05:39;;;;;;;3.20;3.00;;;30.90;1.00;;;;;;5118914;28;20456;-75
2022/07/25 09:08:08;;;;;;;2.40;2.17;;;31.00;1.00;;;;;;5118683;28;20540;-74
2022/07/25 09:10:35;;;;;;;2.70;2.50;;;31.00;1.00;;;;;;5119082;28;20453;-74
2022/07/25 09:13:06;;;;;;;2.57;1.93;;;31.00;1.00;;;;;;5118113;28;20476;-74
2022/07/25 09:15:37;;;;;;;2.50;2.20;;;31.10;1.00;;;;;;5118135;28;20543;-76
2022/07/25 09:18:06;;;;;;;2.90;2.50;;;31.20;1.00;;;;;;5116389;28;20531;-73
2022/07/25 09:20:43;;;;;;;2.40;2.20;;;31.30;1.00;;;;;;5117954;28;20248;-74
2022/07/25 09:23:10;;;;;;;2.53;2.33;;;31.40;1.00;;;;;;5116969;28;20957;-75
2022/07/25 09:25:37;;;;;;;3.13;2.90;;;31.40;1.00;;;;;;5114227;28;20460;-75
2022/07/25 09:28:15;;;;;;;2.50;2.30;;;31.50;1.00;;;;;;5116902;28;20502;-74
2022/07/25 09:30:54;;;;;;;2.63;2.43;;;31.60;1.00;;;;;;5115843;28;20807;-73
2022/07/25 09:33:22;;;;;;;2.57;2.20;;;31.80;1.00;;;;;;5095239;28;20584;-74
2022/07/25 09:35:50;;;;;;;3.15;2.70;;;31.90;1.00;;;;;;5114012;28;21093;-73
2022/07/25 09:38:19;;;;;;;3.00;2.70;;;32.00;1.00;;;;;;5116645;28;20702;-73
2022/07/25 09:40:55;;;;;;;2.80;2.50;;;32.00;1.00;;;;;;5111572;28;20512;-71
2022/07/25 09:43:23;;;;;;;3.50;3.30;;;31.90;1.00;;;;;;5112353;28;20444;-71
2022/07/25 09:45:51;;;;;;;2.53;2.33;;;32.10;1.00;;;;;;5110865;28;20935;-72
2022/07/25 09:48:20;;;;;;;2.97;2.77;;;32.30;1.00;;;;;;5110680;28;20457;-73
2022/07/25 09:50:47;;;;;;;3.43;3.13;;;32.40;1.00;;;;;;5113470;28;20516;-71
2022/07/25 09:53:16;;;;;;;2.60;2.40;;;32.40;1.00;;;;;;5109190;28;20481;-73
2022/07/25 09:55:43;;;;;;;2.10;1.90;;;32.30;1.00;;;;;;5110936;28;20499;-72
2022/07/25 09:58:10;;;;;;;2.20;2.00;;;32.60;1.00;;;;;;5101145;28;21112;-73
2022/07/25 10:00:41;;;;;;;2.77;2.43;;;32.70;1.00;;;;;;5109295;28;20564;-72
2022/07/25 10:03:35;;;;;;;3.53;2.83;;;32.90;1.00;;;;;;5110364;28;20444;-72
2022/07/25 10:06:14;;;;;;;2.97;2.60;;;33.00;1.00;;;;;;5107405;28;20964;-73
2022/07/25 10:08:43;;;;;;;2.10;2.00;;;33.00;1.00;;;;;;5106455;28;20497;-72
2022/07/25 10:11:19;;;;;;;2.70;2.27;;;33.30;1.00;;;;;;5112367;28;20461;-73
2022/07/25 10:13:46;;;;;;;4.87;2.37;;;33.50;1.00;;;;;;5107983;28;20584;-73
2022/07/25 10:16:18;;;;;;;1.97;1.83;;;33.80;1.00;;;;;;5110073;28;20839;-73
2022/07/25 10:18:50;;;;;;;2.73;2.53;;;33.90;1.00;;;;;;5110756;28;20920;-72
2022/07/25 10:21:17;;;;;;;2.73;2.53;;;33.90;1.00;;;;;;5113721;28;20449;-73
2022/07/25 10:23:56;;;;;;;2.53;2.10;;;34.10;1.00;;;;;;5111376;28;20542;-72
2022/07/25 10:26:24;;;;;;;2.43;2.23;;;34.30;1.00;;;;;;5108887;28;21139;-72
2022/07/25 10:28:52;;;;;;;2.97;2.77;;;34.40;1.00;;;;;;5113792;28;20980;-73
2022/07/25 10:31:22;;;;;;;2.47;2.27;;;34.50;1.00;;;;;;5109071;28;20489;-73
2022/07/25 10:33:53;;;;;;;2.87;2.20;;;34.70;1.00;;;;;;5114137;28;20481;-72
2022/07/25 10:36:32;;;;;;;2.30;2.10;;;35.20;1.00;;;;;;5112806;28;20456;-71
2022/07/25 10:39:01;;;;;;;2.90;2.60;;;35.40;1.00;;;;;;5107809;28;20457;-72
2022/07/25 10:41:29;;;;;;;4.00;2.00;;;35.70;1.00;;;;;;5097033;28;20477;-71
2022/07/25 10:44:03;;;;;;;3.07;2.87;;;35.70;1.00;;;;;;5093713;28;20473;-72
2022/07/25 10:46:34;;;;;;;6.63;2.13;;;35.60;1.00;;;;;;5090957;28;20461;-72
2022/07/25 10:49:03;;;;;;;7.23;2.00;;;35.80;1.00;;;;;;5093835;28;20501;-73
2022/07/25 10:51:33;;;;;;;2.20;2.10;;;36.00;1.00;;;;;;5095197;28;20551;-72
2022/07/25 10:54:12;;;;;;;2.50;2.30;;;36.40;1.00;;;;;;5093351;28;20536;-73
2022/07/25 10:56:52;;;;;;;9.87;9.07;;;36.50;1.00;;;;;;5094752;28;20529;-73
2022/07/25 10:59:27;;;;;;;2.70;2.50;;;36.90;1.00;;;;;;5087958;28;20773;-71
2022/07/25 11:01:54;;;;;;;2.57;2.47;;;36.90;1.00;;;;;;5094439;28;20449;-71
2022/07/25 11:04:21;;;;;;;2.30;1.70;;;36.80;1.00;;;;;;5092380;28;20515;-71
2022/07/25 11:06:48;;;;;;;2.20;2.00;;;36.80;1.00;;;;;;5088431;28;20501;-71
2022/07/25 11:09:19;;;;;;;2.60;2.40;;;36.90;1.00;;;;;;5082454;28;20485;-72
2022/07/25 11:11:48;;;;;;;2.97;2.17;;;36.70;1.00;;;;;;5087918;28;20552;-71
2022/07/25 11:14:16;;;;;;;2.07;1.87;;;36.40;1.00;;;;;;5091520;28;21018;-73
2022/07/25 11:16:44;;;;;;;1.60;1.47;;;36.00;1.00;;;;;;5089086;28;20900;-71
2022/07/25 11:19:19;;;;;;;3.73;1.70;;;35.70;1.00;;;;;;5084975;28;20548;-71
2022/07/25 11:21:46;;;;;;;6.13;4.27;;;35.70;1.00;;;;;;5092655;28;20493;-71
2022/07/25 11:24:13;;;;;;;3.37;2.43;;;36.10;1.00;;;;;;5087945;28;20514;-72
2022/07/25 11:26:49;;;;;;;2.23;2.00;;;36.70;1.00;;;;;;5083614;28;20493;-73
2022/07/25 11:29:25;;;;;;;2.07;1.97;;;37.40;1.00;;;;;;5082216;28;20457;-73
2022/07/25 11:31:57;;;;;;;1.70;1.40;;;37.70;1.00;;;;;;5088381;28;20880;-71
2022/07/25 11:34:28;;;;;;;1.70;1.53;;;38.00;1.00;;;;;;5085965;28;20543;-71
2022/07/25 11:36:57;;;;;;;2.40;1.67;;;38.10;1.00;;;;;;5090023;28;20473;-72
2022/07/25 11:39:25;;;;;;;1.63;1.53;;;37.70;1.00;;;;;;5091564;28;20483;-72
2022/07/25 11:42:01;;;;;;;1.80;1.40;;;37.30;1.00;;;;;;5108800;28;20485;-72
2022/07/25 11:44:33;;;;;;;1.93;1.40;;;36.80;1.00;;;;;;5113405;28;20797;-72
2022/07/25 11:47:00;;;;;;;2.00;1.40;;;36.60;1.00;;;;;;5110979;28;20537;-72
2022/07/25 11:49:27;;;;;;;1.87;1.40;;;36.90;1.00;;;;;;5111139;28;20522;-71
2022/07/25 11:51:55;;;;;;;1.73;1.60;;;37.30;1.00;;;;;;5114704;28;20479;-72
2022/07/25 11:54:22;;;;;;;2.13;1.67;;;37.80;1.00;;;;;;5113610;28;20476;-73
2022/07/25 11:56:49;;;;;;;1.40;1.20;;;38.10;1.00;;;;;;5107927;28;20939;-72
2022/07/25 11:59:17;;;;;;;1.40;1.30;;;38.80;1.00;;;;;;5112558;28;20444;-73
2022/07/25 12:01:46;;;;;;;3.33;1.50;;;39.40;1.00;;;;;;5113383;28;20755;-73
2022/07/25 12:04:14;;;;;;;1.30;1.20;;;39.20;1.00;;;;;;5114259;28;20788;-72
2022/07/25 12:06:42;;;;;;;1.53;1.27;;;39.20;1.00;;;;;;5110260;28;20521;-73
2022/07/25 12:09:11;;;;;;;1.10;1.00;;;39.80;1.00;;;;;;5115058;28;20538;-72
2022/07/25 12:11:38;;;;;;;1.00;0.90;;;38.80;1.00;;;;;;5112458;28;20553;-72
2022/07/25 12:14:07;;;;;;;1.20;1.00;;;37.90;1.00;;;;;;5116567;28;20476;-72
2022/07/25 12:16:36;;;;;;;1.10;0.90;;;37.10;1.00;;;;;;5102523;28;20465;-71
2022/07/25 12:19:04;;;;;;;1.47;0.90;;;36.70;1.00;;;;;;5103906;28;20906;-72
2022/07/25 12:21:31;;;;;;;1.30;1.03;;;37.10;1.00;;;;;;5116107;28;20529;-73
2022/07/25 12:23:58;;;;;;;1.33;1.10;;;37.70;1.00;;;;;;5116864;28;20464;-72
2022/07/25 12:26:25;;;;;;;1.50;1.20;;;37.80;1.00;;;;;;5116474;28;20539;-71
2022/07/25 12:28:52;;;;;;;1.20;1.10;;;38.20;1.00;;;;;;5116483;28;20891;-72
2022/07/25 12:31:19;;;;;;;1.50;1.40;;;38.30;1.00;;;;;;5114789;28;20923;-72
2022/07/25 12:33:48;;;;;;;1.60;1.37;;;38.00;1.00;;;;;;5117082;28;20479;-72
2022/07/25 12:36:15;;;;;;;1.70;1.37;;;37.80;1.00;;;;;;5118634;28;20970;-72
2022/07/25 12:38:42;;;;;;;1.40;1.20;;;37.90;1.00;;;;;;5117660;28;20440;-72
2022/07/25 12:41:09;;;;;;;1.50;1.20;;;37.60;1.00;;;;;;5118189;28;20488;-72
2022/07/25 12:43:36;;;;;;;1.80;1.20;;;37.40;1.00;;;;;;5118168;28;20900;-72
2022/07/25 12:46:03;;;;;;;1.50;1.20;;;37.00;1.00;;;;;;5117210;28;20480;-72
2022/07/25 12:48:29;;;;;;;1.60;1.50;;;36.70;1.00;;;;;;5117706;28;20444;-72
2022/07/25 12:50:58;;;;;;;2.80;2.53;;;36.30;1.00;;;;;;5116713;28;20484;-71
2022/07/25 12:53:25;;;;;;;1.70;1.40;;;36.20;1.00;;;;;;5116848;28;20576;-71
2022/07/25 12:55:52;;;;;;;1.40;1.30;;;36.10;1.00;;;;;;5115715;28;20758;-71
2022/07/25 12:58:19;;;;;;;1.57;1.30;;;35.90;1.00;;;;;;5116726;28;20547;-72